Time;durP1;ratioP1;P1;durP2;ratioP2;P2;SDS_P1;SDS_P2;PMS_P1;PMS_P2;Temp;Humidity;BMP_temperature;BMP_pressure;BME280_temperature;BME280_humidity;BME280_pressure;Samples;Min_cycle;Max_cycle;Signal;HPM_P1;HPM_P2
2022/10/16 00:01:37;;;;;;;8.20;3.30;;;16.00;99.90;;;;;;5031764;28;20085;-84
2022/10/16 00:04:03;;;;;;;5.50;2.78;;;16.00;99.90;;;;;;5023254;28;20406;-82
2022/10/16 00:06:30;;;;;;;8.75;2.55;;;15.90;99.90;;;;;;5020459;28;20116;-84
2022/10/16 00:08:57;;;;;;;5.05;2.70;;;;;;;;;;5018537;28;20091;-85
2022/10/16 00:11:33;;;;;;;4.32;2.03;;;15.90;99.90;;;;;;5019139;28;20103;-86
2022/10/16 00:14:00;;;;;;;3.80;1.73;;;16.00;99.90;;;;;;5035832;28;20044;-86
2022/10/16 00:16:28;;;;;;;6.13;2.30;;;15.90;99.90;;;;;;5014523;28;20514;-84
2022/10/16 00:18:54;;;;;;;3.15;1.85;;;15.80;99.90;;;;;;5033141;28;20029;-86
2022/10/16 00:21:22;;;;;;;4.78;2.40;;;17.20;99.90;;;;;;5017709;28;20029;-86
2022/10/16 00:23:51;;;;;;;5.38;2.42;;;15.90;99.90;;;;;;5015728;28;20115;-85
2022/10/16 00:26:18;;;;;;;3.50;2.00;;;15.90;99.90;;;;;;5012595;28;20566;-83
2022/10/16 00:28:46;;;;;;;3.90;2.13;;;15.90;99.90;;;;;;5008780;28;20026;-86
2022/10/16 00:31:12;;;;;;;6.88;1.80;;;16.10;99.90;;;;;;5028551;28;20026;-83
2022/10/16 00:33:39;;;;;;;4.55;1.90;;;15.90;99.90;;;;;;5030401;28;20018;-85
2022/10/16 00:36:06;;;;;;;4.30;1.90;;;17.50;99.90;;;;;;5014357;28;20543;-85
2022/10/16 00:38:32;;;;;;;4.80;1.92;;;;;;;;;;5020662;28;20492;-87
2022/10/16 00:40:58;;;;;;;7.43;2.50;;;;;;;;;;5008193;28;20142;-84
2022/10/16 00:43:41;;;;;;;4.97;1.88;;;17.10;99.90;;;;;;5013293;28;20033;-87
2022/10/16 00:46:35;;;;;;;3.38;1.88;;;15.80;99.90;;;;;;5026652;28;20035;-89
2022/10/16 00:49:19;;;;;;;6.88;1.48;;;15.80;99.90;;;;;;5034725;28;20040;-86
2022/10/16 00:51:54;;;;;;;3.35;1.50;;;15.80;99.90;;;;;;5026769;28;20047;-84
2022/10/16 00:54:25;;;;;;;1.92;1.23;;;15.80;99.90;;;;;;5029432;28;20045;-85
2022/10/16 00:56:52;;;;;;;3.08;1.55;;;15.70;99.90;;;;;;5029682;28;20044;-86
2022/10/16 00:59:22;;;;;;;3.78;1.48;;;15.80;99.90;;;;;;5025520;28;20030;-84
2022/10/16 01:01:48;;;;;;;3.67;1.55;;;;;;;;;;5020359;28;20033;-85
2022/10/16 01:04:14;;;;;;;3.58;1.50;;;;;;;;;;5035150;28;20057;-83
2022/10/16 01:06:54;;;;;;;4.68;1.67;;;15.70;99.90;;;;;;5024098;28;20047;-85
2022/10/16 01:09:31;;;;;;;2.55;1.30;;;15.70;99.90;;;;;;5012816;28;20044;-87
2022/10/16 01:12:31;;;;;;;10.32;1.50;;;15.70;99.90;;;;;;5031108;28;20128;-86
2022/10/16 01:15:03;;;;;;;3.55;1.65;;;15.70;99.90;;;;;;5029488;28;20098;-84
2022/10/16 01:17:49;;;;;;;6.78;1.35;;;15.70;99.90;;;;;;5019334;28;20474;-84
2022/10/16 01:20:25;;;;;;;4.07;1.50;;;15.70;99.90;;;;;;5019058;28;20411;-87
2022/10/16 01:23:14;;;;;;;2.20;1.00;;;15.70;99.90;;;;;;5027381;28;20029;-85
2022/10/16 01:25:59;;;;;;;2.75;1.30;;;15.70;99.90;;;;;;5032725;28;20046;-86
2022/10/16 01:28:32;;;;;;;4.22;1.40;;;15.70;99.90;;;;;;5029941;28;20416;-87
2022/10/16 01:31:00;;;;;;;4.88;1.60;;;15.70;99.90;;;;;;5012261;28;20082;-88
2022/10/16 01:33:41;;;;;;;5.22;1.20;;;15.70;99.90;;;;;;5030186;28;20044;-83
2022/10/16 01:36:15;;;;;;;3.95;1.50;;;15.70;99.90;;;;;;5031434;28;20479;-84
2022/10/16 01:38:44;;;;;;;2.67;1.35;;;15.70;99.90;;;;;;5025985;28;20557;-85
2022/10/16 01:41:37;;;;;;;3.65;1.20;;;15.60;99.90;;;;;;5014238;28;20025;-86
2022/10/16 01:44:14;;;;;;;4.70;1.30;;;15.70;99.90;;;;;;5024589;28;20029;-87
2022/10/16 01:46:42;;;;;;;3.40;1.10;;;15.70;99.90;;;;;;5010022;28;20052;-85
2022/10/16 01:49:10;;;;;;;4.38;1.48;;;15.50;99.90;;;;;;4996320;28;20040;-85
2022/10/16 01:51:37;;;;;;;2.42;1.35;;;15.60;99.90;;;;;;5027172;28;20109;-86
2022/10/16 01:54:07;;;;;;;3.13;1.50;;;15.60;99.90;;;;;;5036882;28;20025;-86
2022/10/16 01:56:36;;;;;;;3.20;1.40;;;15.60;99.90;;;;;;5007158;28;20025;-83
2022/10/16 01:59:09;;;;;;;2.08;1.10;;;15.60;99.90;;;;;;5019520;28;20029;-84
2022/10/16 02:01:39;;;;;;;3.33;1.42;;;15.60;99.90;;;;;;5027207;28;20060;-87
2022/10/16 02:04:15;;;;;;;3.42;1.20;;;15.60;99.90;;;;;;5022840;28;20052;-86
2022/10/16 02:06:41;;;;;;;3.05;1.10;;;;;;;;;;5009628;28;20029;-86
2022/10/16 02:09:07;;;;;;;2.67;1.10;;;;;;;;;;5012591;28;20033;-87
2022/10/16 02:11:33;;;;;;;5.25;1.10;;;;;;;;;;5007449;28;20150;-86
2022/10/16 02:14:03;;;;;;;2.80;1.30;;;15.50;99.90;;;;;;5006164;28;20232;-86
2022/10/16 02:16:40;;;;;;;6.45;1.23;;;15.30;99.90;;;;;;5028191;28;20029;-84
2022/10/16 02:19:07;;;;;;;2.08;1.20;;;15.50;99.90;;;;;;5024004;28;20033;-87
2022/10/16 02:21:47;;;;;;;4.47;1.30;;;15.50;99.90;;;;;;5023827;28;20037;-85
2022/10/16 02:24:37;;;;;;;4.20;1.40;;;15.50;99.90;;;;;;5011082;28;20172;-87
2022/10/16 02:27:09;;;;;;;4.20;1.15;;;15.50;99.90;;;;;;5031421;28;20416;-86
2022/10/16 02:29:39;;;;;;;3.45;1.20;;;15.50;99.90;;;;;;5011997;28;20032;-85
2022/10/16 02:32:06;;;;;;;3.58;1.20;;;16.20;99.90;;;;;;5028218;28;20030;-85
2022/10/16 02:34:33;;;;;;;1.60;1.00;;;15.50;99.90;;;;;;5013588;28;20116;-86
2022/10/16 02:37:01;;;;;;;2.92;1.00;;;15.70;99.90;;;;;;5026571;28;20029;-85
2022/10/16 02:39:29;;;;;;;4.05;1.23;;;15.50;99.90;;;;;;5027236;28;20118;-86
2022/10/16 02:41:54;;;;;;;2.50;1.17;;;15.50;99.90;;;;;;5028912;28;20052;-87
2022/10/16 02:44:20;;;;;;;2.72;0.98;;;15.50;99.90;;;;;;5009865;28;20092;-87
2022/10/16 02:46:46;;;;;;;2.80;0.90;;;15.70;99.90;;;;;;5033838;28;20384;-86
2022/10/16 02:49:11;;;;;;;2.70;1.10;;;15.70;99.90;;;;;;5012873;28;20035;-86
2022/10/16 02:51:37;;;;;;;2.03;1.40;;;17.90;99.90;;;;;;5018628;28;20196;-86
2022/10/16 02:54:03;;;;;;;1.65;0.90;;;15.50;99.90;;;;;;5014219;28;20096;-87
2022/10/16 02:56:30;;;;;;;1.33;0.90;;;;;;;;;;5016521;28;20075;-87
2022/10/16 02:58:56;;;;;;;1.27;0.80;;;15.50;99.90;;;;;;5011415;28;20030;-85
2022/10/16 03:01:22;;;;;;;1.73;0.80;;;16.00;99.90;;;;;;5017613;28;20033;-88
2022/10/16 03:03:48;;;;;;;2.40;0.90;;;15.40;99.90;;;;;;5011476;28;20120;-85
2022/10/16 03:06:14;;;;;;;1.80;0.80;;;;;;;;;;5023777;28;20032;-87
2022/10/16 03:08:40;;;;;;;2.83;0.90;;;;;;;;;;5016744;28;20030;-87
2022/10/16 03:11:05;;;;;;;6.40;1.27;;;15.40;99.90;;;;;;5029370;28;20124;-86
2022/10/16 03:13:31;;;;;;;3.05;1.00;;;;;;;;;;5030257;28;20029;-88
2022/10/16 03:15:57;;;;;;;2.00;0.85;;;15.40;99.90;;;;;;5034115;28;20033;-89
2022/10/16 03:18:22;;;;;;;4.28;1.42;;;15.50;99.90;;;;;;5030148;28;20052;-86
2022/10/16 03:20:48;;;;;;;3.08;1.02;;;15.50;99.90;;;;;;5013847;28;20494;-88
2022/10/16 03:23:14;;;;;;;4.07;0.88;;;15.50;99.90;;;;;;5033804;28;20052;-87
2022/10/16 03:25:40;;;;;;;1.83;0.90;;;15.50;99.90;;;;;;5017702;28;20525;-87
2022/10/16 03:28:05;;;;;;;3.33;0.90;;;15.40;99.90;;;;;;5027987;28;20349;-87
2022/10/16 03:30:31;;;;;;;3.95;1.02;;;15.50;99.90;;;;;;5021903;28;20531;-89
2022/10/16 03:32:57;;;;;;;4.45;1.55;;;15.50;99.90;;;;;;5008815;28;20404;-85
2022/10/16 03:35:23;;;;;;;4.35;1.27;;;15.40;99.90;;;;;;5013927;28;20029;-85
2022/10/16 03:37:50;;;;;;;2.25;1.15;;;15.40;99.90;;;;;;5035021;28;20495;-86
2022/10/16 03:40:16;;;;;;;5.40;1.10;;;;;;;;;;5021782;28;20052;-85
2022/10/16 03:42:44;;;;;;;3.47;1.20;;;15.40;99.90;;;;;;5012699;28;21217;-85
2022/10/16 03:45:11;;;;;;;1.85;1.23;;;15.40;99.90;;;;;;5013432;28;20567;-85
2022/10/16 03:47:37;;;;;;;4.43;1.20;;;15.90;99.90;;;;;;5036032;28;20037;-86
2022/10/16 03:50:03;;;;;;;2.90;1.20;;;15.50;99.90;;;;;;5014415;28;20032;-85
2022/10/16 03:52:29;;;;;;;8.23;1.60;;;15.50;99.90;;;;;;5011276;28;20051;-85
2022/10/16 03:54:55;;;;;;;3.20;1.38;;;15.50;99.90;;;;;;5008686;28;20030;-82
2022/10/16 03:57:21;;;;;;;4.78;1.30;;;15.60;99.90;;;;;;5026010;28;20029;-86
2022/10/16 03:59:47;;;;;;;2.63;1.50;;;15.40;99.90;;;;;;5007522;28;20035;-87
2022/10/16 04:02:12;;;;;;;4.03;1.35;;;15.40;99.90;;;;;;5010486;28;20029;-85
2022/10/16 04:04:38;;;;;;;4.40;1.65;;;15.50;99.90;;;;;;5030667;28;20030;-86
2022/10/16 04:07:04;;;;;;;4.97;1.67;;;15.40;99.90;;;;;;5012154;28;20546;-86
2022/10/16 04:09:30;;;;;;;4.35;1.30;;;15.80;99.90;;;;;;5025699;28;20033;-87
2022/10/16 04:11:55;;;;;;;3.83;1.20;;;15.40;99.90;;;;;;5017652;28;20184;-86
2022/10/16 04:14:24;;;;;;;5.82;1.40;;;15.40;99.90;;;;;;5015218;28;20049;-81
2022/10/16 04:16:50;;;;;;;3.40;1.40;;;18.20;99.90;;;;;;5028516;28;20021;-85
2022/10/16 04:19:15;;;;;;;4.03;1.40;;;15.30;99.90;;;;;;5029933;28;20033;-83
2022/10/16 04:21:41;;;;;;;2.92;1.45;;;15.20;99.90;;;;;;5030132;28;20034;-81
2022/10/16 04:24:07;;;;;;;6.15;1.52;;;15.30;99.90;;;;;;5030081;28;20032;-84
2022/10/16 04:26:32;;;;;;;3.42;1.50;;;15.40;99.90;;;;;;5013817;28;20034;-82
2022/10/16 04:28:58;;;;;;;2.72;1.50;;;15.40;99.90;;;;;;5019404;28;20078;-87
2022/10/16 04:31:24;;;;;;;3.00;1.63;;;15.50;99.90;;;;;;5021428;28;20025;-84
2022/10/16 04:33:49;;;;;;;5.93;1.75;;;15.40;99.90;;;;;;5017860;28;20025;-86
2022/10/16 04:36:15;;;;;;;2.95;1.40;;;15.40;99.90;;;;;;5016469;28;20022;-87
2022/10/16 04:38:40;;;;;;;4.15;1.55;;;16.30;99.90;;;;;;5009964;28;20139;-87
2022/10/16 04:41:07;;;;;;;6.55;2.15;;;15.40;99.90;;;;;;5024412;28;20033;-86
2022/10/16 04:43:33;;;;;;;3.47;1.80;;;15.30;99.90;;;;;;5034109;28;20026;-83
2022/10/16 04:45:59;;;;;;;3.47;1.88;;;15.40;99.90;;;;;;5008000;28;20505;-85
2022/10/16 04:48:25;;;;;;;5.45;1.98;;;15.60;99.90;;;;;;5023169;28;20029;-87
2022/10/16 04:50:51;;;;;;;4.00;1.85;;;;;;;;;;5032920;28;20032;-87
2022/10/16 04:53:17;;;;;;;3.08;1.65;;;;;;;;;;5031624;28;20044;-84
2022/10/16 04:55:43;;;;;;;3.67;1.42;;;;;;;;;;5019066;28;20033;-87
2022/10/16 04:58:09;;;;;;;2.70;1.60;;;;;;;;;;5050957;28;20013;-85
2022/10/16 05:00:35;;;;;;;5.30;2.08;;;15.40;99.90;;;;;;5031470;28;20475;-87
2022/10/16 05:03:01;;;;;;;5.30;1.80;;;;;;;;;;5021346;28;20036;-87
2022/10/16 05:05:28;;;;;;;3.92;1.70;;;;;;;;;;5017331;28;20029;-85
2022/10/16 05:07:54;;;;;;;2.97;1.50;;;;;;;;;;5037798;28;20033;-85
2022/10/16 05:10:20;;;;;;;3.53;1.92;;;;;;;;;;5033417;28;20034;-86
2022/10/16 05:12:46;;;;;;;3.58;1.60;;;15.30;99.90;;;;;;5035689;28;20040;-87
2022/10/16 05:15:12;;;;;;;3.85;1.42;;;15.30;99.90;;;;;;5026476;28;20026;-86
2022/10/16 05:17:38;;;;;;;7.65;2.35;;;15.20;99.90;;;;;;5020367;28;20574;-86
2022/10/16 05:20:04;;;;;;;4.95;1.60;;;15.20;99.90;;;;;;5026276;28;20079;-86
2022/10/16 05:22:30;;;;;;;3.67;1.60;;;;;;;;;;5038631;28;20044;-87
2022/10/16 05:24:56;;;;;;;3.30;1.45;;;;;;;;;;5020422;28;20041;-86
2022/10/16 05:27:21;;;;;;;4.97;1.55;;;15.30;99.90;;;;;;5024451;28;20040;-86
2022/10/16 05:29:48;;;;;;;4.32;1.65;;;15.30;99.90;;;;;;5017556;28;20041;-85
2022/10/16 05:32:15;;;;;;;3.60;1.75;;;15.30;99.90;;;;;;5018015;28;20021;-86
2022/10/16 05:34:41;;;;;;;4.18;1.30;;;;;;;;;;5033378;28;20029;-87
2022/10/16 05:37:07;;;;;;;4.20;1.30;;;;;;;;;;5017167;28;20028;-84
2022/10/16 05:39:33;;;;;;;2.65;1.40;;;;;;;;;;5021428;28;20025;-86
2022/10/16 05:41:59;;;;;;;3.33;1.25;;;15.30;99.90;;;;;;5028461;28;20017;-87
2022/10/16 05:44:24;;;;;;;3.17;1.30;;;15.30;99.90;;;;;;5023639;28;20033;-84
2022/10/16 05:46:50;;;;;;;6.10;1.60;;;15.20;99.90;;;;;;5012073;28;20025;-87
2022/10/16 05:49:16;;;;;;;3.92;1.50;;;;;;;;;;5027551;28;20028;-84
2022/10/16 05:51:42;;;;;;;4.78;1.65;;;;;;;;;;5032972;28;20030;-84
2022/10/16 05:54:09;;;;;;;2.58;1.30;;;15.30;99.90;;;;;;5019705;28;20033;-85
2022/10/16 05:56:35;;;;;;;3.10;1.50;;;;;;;;;;5019518;28;20021;-85
2022/10/16 05:59:01;;;;;;;5.25;1.67;;;;;;;;;;5043675;28;20502;-82
2022/10/16 06:01:27;;;;;;;3.60;1.42;;;;;;;;;;5026906;28;20021;-83
2022/10/16 06:03:53;;;;;;;2.58;1.20;;;;;;;;;;5012445;28;20026;-86
2022/10/16 06:06:25;;;;;;;8.05;1.73;;;15.30;99.90;;;;;;5009853;28;20091;-84
2022/10/16 06:08:52;;;;;;;2.25;1.40;;;15.90;99.90;;;;;;5008908;28;20021;-86
2022/10/16 06:11:20;;;;;;;2.97;1.42;;;15.60;99.90;;;;;;5022002;28;20113;-85
2022/10/16 06:13:53;;;;;;;5.90;1.70;;;15.40;99.90;;;;;;5022299;28;20260;-86
2022/10/16 06:16:19;;;;;;;2.47;1.55;;;15.40;99.90;;;;;;5026665;28;20040;-86
2022/10/16 06:18:46;;;;;;;3.45;1.65;;;15.40;99.90;;;;;;5026714;28;20511;-86
2022/10/16 06:21:24;;;;;;;6.63;2.10;;;15.30;99.90;;;;;;5027045;28;20067;-85
2022/10/16 06:23:50;;;;;;;4.75;1.80;;;15.30;99.90;;;;;;5024398;28;20044;-87
2022/10/16 06:26:19;;;;;;;3.90;1.70;;;15.30;99.90;;;;;;5018619;28;20032;-84
2022/10/16 06:28:45;;;;;;;4.13;1.98;;;;;;;;;;5023265;28;20025;-86
2022/10/16 06:31:12;;;;;;;5.20;2.05;;;15.40;99.90;;;;;;5027763;28;20101;-86
2022/10/16 06:33:38;;;;;;;3.90;2.00;;;15.40;99.90;;;;;;5047049;28;20039;-87
2022/10/16 06:36:09;;;;;;;4.15;2.55;;;15.40;99.90;;;;;;5034320;28;20033;-86
2022/10/16 06:38:36;;;;;;;3.53;1.88;;;;;;;;;;5033480;28;20018;-84
2022/10/16 06:41:02;;;;;;;6.22;2.08;;;;;;;;;;5051349;28;20021;-85
2022/10/16 06:43:32;;;;;;;5.05;2.17;;;;;;;;;;5034767;28;20167;-86
2022/10/16 06:45:59;;;;;;;4.90;2.22;;;15.40;99.90;;;;;;5050601;28;20033;-86
2022/10/16 06:48:25;;;;;;;4.32;2.35;;;;;;;;;;5046342;28;20356;-85
2022/10/16 06:51:01;;;;;;;5.38;1.80;;;15.50;99.90;;;;;;5023859;28;20022;-86
2022/10/16 06:53:28;;;;;;;5.20;2.20;;;15.50;99.90;;;;;;5023668;28;20033;-87
2022/10/16 06:55:54;;;;;;;5.60;2.17;;;;;;;;;;5034135;28;20470;-86
2022/10/16 06:58:20;;;;;;;6.40;2.42;;;;;;;;;;5032735;28;20032;-85
2022/10/16 07:00:46;;;;;;;4.13;2.38;;;;;;;;;;5030718;28;20017;-84
2022/10/16 07:03:12;;;;;;;5.88;2.40;;;;;;;;;;5033595;28;20115;-82
2022/10/16 07:05:42;;;;;;;5.70;2.53;;;15.70;99.90;;;;;;5032435;28;20028;-84
2022/10/16 07:08:08;;;;;;;6.95;2.72;;;;;;;;;;5016417;28;20112;-84
2022/10/16 07:10:34;;;;;;;4.20;2.60;;;;;;;;;;5015626;28;20100;-84
2022/10/16 07:13:00;;;;;;;4.53;2.50;;;;;;;;;;5033534;28;20037;-81
2022/10/16 07:15:26;;;;;;;6.35;2.72;;;;;;;;;;5035179;28;20033;-85
2022/10/16 07:17:52;;;;;;;4.35;2.50;;;15.80;99.90;;;;;;5028583;28;20037;-84
2022/10/16 07:20:18;;;;;;;4.63;2.38;;;;;;;;;;5015663;28;20087;-87
2022/10/16 07:22:44;;;;;;;15.52;3.13;;;;;;;;;;5015401;28;20440;-86
2022/10/16 07:25:10;;;;;;;6.45;2.53;;;15.90;99.90;;;;;;5027651;28;20025;-83
2022/10/16 07:27:36;;;;;;;3.97;2.50;;;15.90;99.90;;;;;;5010341;28;20112;-85
2022/10/16 07:30:03;;;;;;;3.40;2.08;;;16.00;99.90;;;;;;5036196;28;20546;-87
2022/10/16 07:32:37;;;;;;;5.50;2.67;;;16.00;99.90;;;;;;5020337;28;20026;-88
2022/10/16 07:35:03;;;;;;;4.20;2.75;;;;;;;;;;5013402;28;20022;-85
2022/10/16 07:37:29;;;;;;;3.70;2.55;;;;;;;;;;5031853;28;20044;-84
2022/10/16 07:39:55;;;;;;;8.68;2.80;;;;;;;;;;5036841;28;20021;-84
2022/10/16 07:42:21;;;;;;;5.65;2.60;;;;;;;;;;5033224;28;20120;-83
2022/10/16 07:44:47;;;;;;;6.03;2.88;;;16.30;99.90;;;;;;5035320;28;20433;-85
2022/10/16 07:47:12;;;;;;;6.13;2.95;;;16.30;99.90;;;;;;5012828;28;20029;-88
2022/10/16 07:49:38;;;;;;;4.30;2.38;;;16.30;99.90;;;;;;5018846;28;20583;-86
2022/10/16 07:52:04;;;;;;;5.35;3.05;;;;;;;;;;5014822;28;20032;-86
2022/10/16 07:54:30;;;;;;;5.07;2.58;;;16.40;99.90;;;;;;5029906;28;20033;-85
2022/10/16 07:56:55;;;;;;;3.30;2.40;;;;;;;;;;4999432;28;20052;-84
2022/10/16 07:59:21;;;;;;;6.15;2.50;;;16.50;99.90;;;;;;5016139;28;20458;-86
2022/10/16 08:01:49;;;;;;;5.03;2.88;;;16.60;99.90;;;;;;5000281;28;20034;-84
2022/10/16 08:04:15;;;;;;;5.40;2.50;;;;;;;;;;5015687;28;20415;-84
2022/10/16 08:06:41;;;;;;;6.93;3.05;;;16.60;99.90;;;;;;5020118;28;20030;-84
2022/10/16 08:09:08;;;;;;;5.55;2.50;;;16.80;99.90;;;;;;5001571;28;20029;-84
2022/10/16 08:11:34;;;;;;;7.40;2.63;;;;;;;;;;5005037;28;20061;-86
2022/10/16 08:14:00;;;;;;;3.70;2.30;;;;;;;;;;5022612;28;20562;-85
2022/10/16 08:16:26;;;;;;;8.48;2.20;;;;;;;;;;5022967;28;20022;-85
2022/10/16 08:18:52;;;;;;;7.60;3.40;;;16.70;99.90;;;;;;5027416;28;20027;-88
2022/10/16 08:21:25;;;;;;;5.30;2.67;;;16.80;99.90;;;;;;5022187;28;20061;-88
2022/10/16 08:23:52;;;;;;;4.65;2.28;;;16.80;99.90;;;;;;5031264;28;20021;-86
2022/10/16 08:26:18;;;;;;;7.55;2.95;;;16.80;99.90;;;;;;5014451;28;20021;-88
2022/10/16 08:28:44;;;;;;;5.75;2.47;;;16.90;99.90;;;;;;5010698;28;21835;-85
2022/10/16 08:31:13;;;;;;;5.30;2.47;;;17.00;99.90;;;;;;5025526;28;20040;-84
2022/10/16 08:33:42;;;;;;;7.50;2.65;;;17.10;99.90;;;;;;5029282;28;20128;-87
2022/10/16 08:36:10;;;;;;;3.92;2.13;;;17.10;99.90;;;;;;5023344;28;20184;-86
2022/10/16 08:38:36;;;;;;;5.50;2.00;;;;;;;;;;5024438;28;20041;-87
2022/10/16 08:41:17;;;;;;;4.93;2.35;;;17.20;99.90;;;;;;5024079;28;20127;-87
2022/10/16 08:43:49;;;;;;;4.53;2.28;;;17.30;99.90;;;;;;5010875;28;20037;-85
2022/10/16 08:46:30;;;;;;;5.78;2.40;;;17.40;99.90;;;;;;5018793;28;20033;-88
2022/10/16 08:48:58;;;;;;;6.13;3.05;;;17.50;99.90;;;;;;5025431;28;20364;-89
2022/10/16 08:51:28;;;;;;;9.82;2.60;;;17.60;99.90;;;;;;5009711;28;20061;-86
2022/10/16 08:54:18;;;;;;;3.80;2.38;;;17.80;99.90;;;;;;5006380;28;20129;-85
2022/10/16 08:56:44;;;;;;;5.85;2.60;;;;;;;;;;5015906;28;20044;-83
2022/10/16 08:59:15;;;;;;;6.10;2.35;;;17.80;99.90;;;;;;5007880;28;20033;-86
2022/10/16 09:01:46;;;;;;;5.63;2.60;;;17.80;99.90;;;;;;5017427;28;20097;-86
2022/10/16 09:04:25;;;;;;;6.88;2.38;;;17.90;99.90;;;;;;5017065;28;20037;-86
2022/10/16 09:06:57;;;;;;;9.93;3.83;;;17.90;99.90;;;;;;5005615;28;20029;-87
2022/10/16 09:10:07;;;;;;;7.60;2.65;;;17.90;99.90;;;;;;4999238;28;20025;-86
2022/10/16 09:12:39;;;;;;;11.00;2.60;;;17.80;99.90;;;;;;5018010;28;20060;-85
2022/10/16 09:15:07;;;;;;;4.97;2.63;;;18.10;99.90;;;;;;5028678;28;20226;-87
2022/10/16 09:18:02;;;;;;;5.90;2.45;;;17.70;99.90;;;;;;5033581;28;20376;-86
2022/10/16 09:20:40;;;;;;;5.90;2.58;;;17.80;99.90;;;;;;5002154;28;20410;-86
2022/10/16 09:23:25;;;;;;;4.70;2.38;;;17.90;99.90;;;;;;5004973;28;20036;-85
2022/10/16 09:25:52;;;;;;;5.38;2.60;;;18.00;99.90;;;;;;5022111;28;20036;-80
2022/10/16 09:28:19;;;;;;;5.20;2.13;;;18.10;99.90;;;;;;5010766;28;20128;-87
2022/10/16 09:30:48;;;;;;;4.75;2.30;;;18.20;99.90;;;;;;5003818;28;20026;-85
2022/10/16 09:33:14;;;;;;;6.47;2.40;;;18.40;99.90;;;;;;5002301;28;20034;-84
2022/10/16 09:35:44;;;;;;;6.47;2.42;;;18.50;99.90;;;;;;5007181;28;20091;-87
2022/10/16 09:38:26;;;;;;;5.03;2.50;;;18.50;99.90;;;;;;5008708;28;20022;-87
2022/10/16 09:40:52;;;;;;;5.63;2.45;;;18.50;99.90;;;;;;5021399;28;20701;-87
2022/10/16 09:43:18;;;;;;;3.00;2.10;;;;;;;;;;5022558;28;20033;-84
2022/10/16 09:45:56;;;;;;;6.10;2.20;;;18.60;99.90;;;;;;5018031;28;20037;-85
2022/10/16 09:48:22;;;;;;;6.35;2.33;;;;;;;;;;5007614;28;20041;-85
2022/10/16 09:51:03;;;;;;;5.47;2.30;;;18.80;99.90;;;;;;5019296;28;20022;-85
2022/10/16 09:53:43;;;;;;;6.47;2.50;;;18.90;99.90;;;;;;5009999;28;20033;-83
2022/10/16 09:56:13;;;;;;;4.45;2.35;;;19.00;99.90;;;;;;5009236;28;20034;-85
2022/10/16 09:58:43;;;;;;;6.07;2.28;;;19.10;99.90;;;;;;5008262;28;20121;-88
2022/10/16 10:01:14;;;;;;;4.72;2.10;;;19.00;99.90;;;;;;5032457;28;20054;-81
2022/10/16 10:03:41;;;;;;;5.20;2.42;;;19.10;99.90;;;;;;5016136;28;20045;-86
2022/10/16 10:06:37;;;;;;;4.45;2.10;;;19.00;99.90;;;;;;5016129;28;20075;-86
2022/10/16 10:09:15;;;;;;;8.00;2.22;;;19.10;99.90;;;;;;5029408;28;20483;-84
2022/10/16 10:11:42;;;;;;;4.97;2.15;;;19.20;99.90;;;;;;5004333;28;20041;-85
2022/10/16 10:14:24;;;;;;;8.50;2.50;;;19.10;99.90;;;;;;5027118;28;20028;-82
2022/10/16 10:16:52;;;;;;;4.95;2.28;;;19.30;99.90;;;;;;4998218;28;20036;-83
2022/10/16 10:19:23;;;;;;;5.10;2.38;;;19.30;99.90;;;;;;5012879;28;20032;-86
2022/10/16 10:21:51;;;;;;;3.78;2.15;;;19.50;99.90;;;;;;5025268;28;20040;-84
2022/10/16 10:24:18;;;;;;;6.38;1.98;;;19.50;99.90;;;;;;5013178;28;20451;-84
2022/10/16 10:27:11;;;;;;;8.00;2.03;;;19.60;99.90;;;;;;5004565;28;20044;-83
2022/10/16 10:30:15;;;;;;;7.68;2.60;;;19.60;99.90;;;;;;5002100;28;20037;-88
2022/10/16 10:32:58;;;;;;;4.20;2.20;;;19.50;99.90;;;;;;5023185;28;20045;-86
2022/10/16 10:36:01;;;;;;;7.20;2.47;;;19.40;99.90;;;;;;5008076;28;20028;-86
2022/10/16 10:38:38;;;;;;;6.15;2.33;;;19.40;99.90;;;;;;5035928;28;20071;-83
2022/10/16 10:41:39;;;;;;;10.35;2.72;;;19.80;99.90;;;;;;5012838;28;20397;-83
2022/10/16 10:44:39;;;;;;;3.55;2.45;;;19.30;99.90;;;;;;5023629;28;20923;-84
2022/10/16 10:47:18;;;;;;;5.45;2.40;;;19.20;99.90;;;;;;5004631;28;20036;-83
2022/10/16 10:50:12;;;;;;;7.20;2.33;;;19.10;99.90;;;;;;5013939;28;20315;-83
2022/10/16 10:52:37;;;;;;;6.45;2.38;;;19.00;99.90;;;;;;5026216;28;20301;-86
2022/10/16 10:55:20;;;;;;;13.38;2.30;;;19.60;99.90;;;;;;5007886;28;20025;-83
2022/10/16 10:58:23;;;;;;;4.25;2.08;;;19.00;99.90;;;;;;5017357;28;20061;-86
2022/10/16 11:01:03;;;;;;;10.73;4.20;;;19.00;99.90;;;;;;5028368;28;20028;-85
2022/10/16 11:03:32;;;;;;;5.70;3.42;;;19.00;99.90;;;;;;5004143;28;20029;-84
2022/10/16 11:06:17;;;;;;;5.07;2.40;;;19.00;99.90;;;;;;5019417;28;20095;-86
2022/10/16 11:09:08;;;;;;;7.82;3.45;;;19.00;99.90;;;;;;5022343;28;20037;-86
2022/10/16 11:11:51;;;;;;;9.40;4.47;;;19.00;99.90;;;;;;5002935;28;20211;-87
2022/10/16 11:14:31;;;;;;;5.03;2.78;;;19.00;99.90;;;;;;5017121;28;20511;-87
2022/10/16 11:17:00;;;;;;;2.83;1.95;;;19.00;99.90;;;;;;5005921;28;20029;-83
2022/10/16 11:19:29;;;;;;;7.85;3.10;;;19.10;99.90;;;;;;5019001;28;20045;-86
2022/10/16 11:22:22;;;;;;;4.15;2.20;;;19.00;99.90;;;;;;5027761;28;20033;-82
2022/10/16 11:25:11;;;;;;;5.15;2.90;;;19.10;99.90;;;;;;5023364;28;20053;-86
2022/10/16 11:28:15;;;;;;;10.77;8.10;;;19.20;99.90;;;;;;5013462;28;20049;-85
2022/10/16 11:30:57;;;;;;;5.93;2.38;;;19.20;99.90;;;;;;5027570;28;20037;-85
2022/10/16 11:33:37;;;;;;;6.75;2.40;;;19.10;99.90;;;;;;4999304;28;20124;-83
2022/10/16 11:36:37;;;;;;;4.03;2.10;;;19.10;99.90;;;;;;5019658;28;20029;-85
2022/10/16 11:39:20;;;;;;;4.78;2.38;;;19.00;99.90;;;;;;5004916;28;20403;-84
2022/10/16 11:41:54;;;;;;;6.80;2.50;;;19.00;99.90;;;;;;5014285;28;20548;-87
2022/10/16 11:44:42;;;;;;;9.10;2.70;;;19.00;99.90;;;;;;5021363;28;20086;-83
2022/10/16 11:47:32;;;;;;;6.38;3.00;;;19.00;99.90;;;;;;5018960;28;20521;-83
2022/10/16 11:50:01;;;;;;;;;;;19.10;99.90;;;;;;5023715;28;20623;-83
2022/10/16 11:52:39;;;;;;;5.65;2.20;;;19.10;99.90;;;;;;5020347;28;20566;-84
2022/10/16 11:55:07;;;;;;;9.75;5.43;;;19.20;99.90;;;;;;5006855;28;20389;-83
2022/10/16 11:57:39;;;;;;;6.43;2.90;;;19.30;99.90;;;;;;5025272;28;20046;-82
2022/10/16 12:00:13;;;;;;;4.95;2.47;;;19.30;99.90;;;;;;5009510;28;20029;-87
2022/10/16 12:02:58;;;;;;;5.45;2.33;;;19.20;99.90;;;;;;5018599;28;20029;-84
2022/10/16 12:05:38;;;;;;;4.32;2.20;;;19.20;99.90;;;;;;5012773;28;20029;-86
2022/10/16 12:08:15;;;;;;;4.95;2.47;;;19.20;99.90;;;;;;5043422;28;20370;-83
2022/10/16 12:10:43;;;;;;;5.60;2.25;;;19.10;99.90;;;;;;5013197;28;20041;-83
2022/10/16 12:13:35;;;;;;;4.10;2.38;;;19.00;99.90;;;;;;5032931;28;20034;-85
2022/10/16 12:16:22;;;;;;;5.18;2.45;;;19.10;99.90;;;;;;5014784;28;20041;-84
2022/10/16 12:18:48;;;;;;;8.10;2.92;;;19.10;99.90;;;;;;5023270;28;20029;-86
2022/10/16 12:21:16;;;;;;;6.10;2.60;;;19.00;99.90;;;;;;5025942;28;20339;-85
2022/10/16 12:23:56;;;;;;;6.63;3.03;;;19.10;99.90;;;;;;5024390;28;20500;-82
2022/10/16 12:26:44;;;;;;;5.40;2.70;;;19.10;99.90;;;;;;5020810;28;20057;-87
2022/10/16 12:29:14;;;;;;;7.70;2.67;;;19.10;99.90;;;;;;5024007;28;20284;-84
2022/10/16 12:31:44;;;;;;;;;;;19.10;99.90;;;;;;5010394;28;20029;-86
2022/10/16 12:34:32;;;;;;;5.10;2.72;;;19.20;99.90;;;;;;5025899;28;19920;-83
2022/10/16 12:37:28;;;;;;;6.28;2.78;;;19.30;99.90;;;;;;5009421;28;20060;-84
2022/10/16 12:39:55;;;;;;;5.80;2.55;;;19.40;99.90;;;;;;5013963;28;20079;-86
2022/10/16 12:42:26;;;;;;;8.45;2.92;;;19.40;99.90;;;;;;5026077;28;20475;-81
2022/10/16 12:44:52;;;;;;;6.15;2.75;;;;;;;;;;5022363;28;20033;-82
2022/10/16 12:47:30;;;;;;;5.30;2.33;;;19.30;99.90;;;;;;5006562;28;20030;-85
2022/10/16 12:49:56;;;;;;;4.93;2.72;;;19.40;99.90;;;;;;5021277;28;20030;-87
2022/10/16 12:52:27;;;;;;;4.57;2.90;;;19.40;99.90;;;;;;5016604;28;20083;-85
2022/10/16 12:54:58;;;;;;;6.40;2.53;;;19.40;99.90;;;;;;5020662;28;20121;-86
2022/10/16 12:57:37;;;;;;;6.15;2.30;;;19.40;99.90;;;;;;5021914;28;20071;-86
2022/10/16 13:00:22;;;;;;;7.65;2.90;;;19.50;99.90;;;;;;5007561;28;20021;-88
2022/10/16 13:03:09;;;;;;;6.95;2.78;;;19.60;99.90;;;;;;5009257;28;20106;-86
2022/10/16 13:05:50;;;;;;;10.20;4.90;;;19.50;99.90;;;;;;5020340;28;20025;-85
2022/10/16 13:08:42;;;;;;;7.72;3.45;;;19.50;99.90;;;;;;5021957;28;23027;-84
2022/10/16 13:11:27;;;;;;;6.75;2.53;;;19.60;99.90;;;;;;5005479;28;20049;-84
2022/10/16 13:14:32;;;;;;;5.68;2.90;;;19.60;99.90;;;;;;5007687;28;20038;-84
2022/10/16 13:17:20;;;;;;;10.10;2.70;;;19.70;99.90;;;;;;5004037;28;20033;-85
2022/10/16 13:20:13;;;;;;;5.05;2.40;;;19.80;99.90;;;;;;5012535;28;20036;-85
2022/10/16 13:22:56;;;;;;;6.43;2.70;;;19.80;99.90;;;;;;5011634;28;20503;-86
2022/10/16 13:25:30;;;;;;;11.30;2.50;;;19.80;99.90;;;;;;5017326;28;20045;-86
2022/10/16 13:28:02;;;;;;;6.57;3.33;;;19.80;99.90;;;;;;5010156;28;20021;-82
2022/10/16 13:30:35;;;;;;;8.20;2.70;;;19.90;99.90;;;;;;5021798;28;20057;-84
2022/10/16 13:33:23;;;;;;;5.82;2.50;;;19.80;99.90;;;;;;5026711;28;20032;-83